Station History

Weather Underground - logo

Station Historical Data
Daily Summary for February 2, 2018 Units:  Both    English   Metric
« Previous Day
Next Day »
Daily Weekly Monthly Yearly Custom
  High: Low: Average:
Temperature: 71.2 °F /  21.8 °C 41.6 °F /  5.3 °C 54.5 °F /  12.5 °C
Dew Point: 53.8 °F /  12.1 °C 40.0 °F /  4.4 °C 47.8 °F /  8.8 °C
Humidity: 95 % 51 % 80 %
Wind Speed: 3.5 mph /  5.6 km/h - 0.5 mph /  0.8 km/h
Wind Gust: 3.5 mph /  5.6 km/h - -
Wind:- - WNW
Pressure: 30.21 in /  1022.9 hPa 30.10 in /  1019.2 hPa -
Precipitation: 0.00 in /  0 mm    
Historical Graphs
 
 
Tabular Data for February 2, 2018
Time Temperature Dew Point Pressure Wind Wind Speed Wind Gust Humidity Rainfall Rate (Hourly)
00:03 46.5 °F /  8.1 °C 44.0 °F /  6.7 °C 30.17 in /  1021.6 hPa Calm     91 % 0.00 in /  0 mm
00:08 46.6 °F /  8.1 °C 44.1 °F /  6.7 °C 30.17 in /  1021.6 hPa Calm     91 % 0.00 in /  0 mm
00:13 46.6 °F /  8.1 °C 44.4 °F /  6.9 °C 30.16 in /  1021.2 hPa Calm     92 % 0.00 in /  0 mm
00:18 46.7 °F /  8.2 °C 44.5 °F /  6.9 °C 30.16 in /  1021.2 hPa Calm     92 % 0.00 in /  0 mm
00:23 46.7 °F /  8.2 °C 44.5 °F /  6.9 °C 30.16 in /  1021.2 hPa Calm     92 % 0.00 in /  0 mm
00:28 46.4 °F /  8 °C 43.9 °F /  6.6 °C 30.16 in /  1021.2 hPa Calm     91 % 0.00 in /  0 mm
00:33 46.1 °F /  7.8 °C 43.6 °F /  6.4 °C 30.16 in /  1021.2 hPa Calm     91 % 0.00 in /  0 mm
00:38 45.8 °F /  7.7 °C 43.3 °F /  6.3 °C 30.17 in /  1021.6 hPa Calm     91 % 0.00 in /  0 mm
00:43 45.8 °F /  7.7 °C 43.6 °F /  6.4 °C 30.17 in /  1021.6 hPa Calm     92 % 0.00 in /  0 mm
00:48 45.6 °F /  7.6 °C 43.4 °F /  6.3 °C 30.17 in /  1021.6 hPa Calm     92 % 0.00 in /  0 mm
00:53 45.5 °F /  7.5 °C 43.3 °F /  6.3 °C 30.16 in /  1021.2 hPa Calm     92 % 0.00 in /  0 mm
00:58 45.4 °F /  7.4 °C 43.2 °F /  6.2 °C 30.16 in /  1021.2 hPa Calm     92 % 0.00 in /  0 mm
01:03 45.5 °F /  7.5 °C 43.3 °F /  6.3 °C 30.16 in /  1021.2 hPa Calm     92 % 0.00 in /  0 mm
01:08 45.6 °F /  7.6 °C 43.4 °F /  6.3 °C 30.16 in /  1021.2 hPa Calm     92 % 0.00 in /  0 mm
01:13 45.3 °F /  7.4 °C 42.8 °F /  6 °C 30.16 in /  1021.2 hPa Calm     91 % 0.00 in /  0 mm
01:18 45.3 °F /  7.4 °C 42.8 °F /  6 °C 30.16 in /  1021.2 hPa Calm     91 % 0.00 in /  0 mm
01:23 45.2 °F /  7.3 °C 43.0 °F /  6.1 °C 30.16 in /  1021.2 hPa Calm     92 % 0.00 in /  0 mm
01:28 45.1 °F /  7.3 °C 42.6 °F /  5.9 °C 30.16 in /  1021.2 hPa Calm     91 % 0.00 in /  0 mm
01:33 44.8 °F /  7.1 °C 42.3 °F /  5.7 °C 30.17 in /  1021.6 hPa Calm     91 % 0.00 in /  0 mm
01:38 44.6 °F /  7 °C 42.1 °F /  5.6 °C 30.17 in /  1021.6 hPa Calm     91 % 0.00 in /  0 mm
01:43 44.3 °F /  6.8 °C 42.1 °F /  5.6 °C 30.17 in /  1021.6 hPa Calm     92 % 0.00 in /  0 mm
01:48 44.3 °F /  6.8 °C 42.1 °F /  5.6 °C 30.17 in /  1021.6 hPa Calm     92 % 0.00 in /  0 mm
01:53 44.5 °F /  6.9 °C 42.6 °F /  5.9 °C 30.16 in /  1021.2 hPa Calm     93 % 0.00 in /  0 mm
01:58 44.5 °F /  6.9 °C 42.6 °F /  5.9 °C 30.16 in /  1021.2 hPa Calm     93 % 0.00 in /  0 mm
02:03 44.4 °F /  6.9 °C 42.5 °F /  5.8 °C 30.16 in /  1021.2 hPa Calm     93 % 0.00 in /  0 mm
02:08 44.2 °F /  6.8 °C 42.3 °F /  5.7 °C 30.16 in /  1021.2 hPa Calm     93 % 0.00 in /  0 mm
02:13 44.1 °F /  6.7 °C 42.2 °F /  5.7 °C 30.16 in /  1021.2 hPa Calm     93 % 0.00 in /  0 mm
02:18 44.1 °F /  6.7 °C 42.2 °F /  5.7 °C 30.16 in /  1021.2 hPa Calm     93 % 0.00 in /  0 mm
02:23 44.1 °F /  6.7 °C 42.2 °F /  5.7 °C 30.16 in /  1021.2 hPa Calm     93 % 0.00 in /  0 mm
02:28 44.1 °F /  6.7 °C 42.5 °F /  5.8 °C 30.16 in /  1021.2 hPa Calm     94 % 0.00 in /  0 mm
02:33 44.1 °F /  6.7 °C 42.5 °F /  5.8 °C 30.16 in /  1021.2 hPa Calm     94 % 0.00 in /  0 mm
02:38 44.1 °F /  6.7 °C 42.5 °F /  5.8 °C 30.16 in /  1021.2 hPa Calm     94 % 0.00 in /  0 mm
02:43 44.1 °F /  6.7 °C 42.5 °F /  5.8 °C 30.16 in /  1021.2 hPa Calm     94 % 0.00 in /  0 mm
02:48 44.1 °F /  6.7 °C 42.5 °F /  5.8 °C 30.16 in /  1021.2 hPa Calm     94 % 0.00 in /  0 mm
02:53 44.2 °F /  6.8 °C 42.6 °F /  5.9 °C 30.16 in /  1021.2 hPa Calm     94 % 0.00 in /  0 mm
02:59 44.1 °F /  6.7 °C 42.5 °F /  5.8 °C 30.16 in /  1021.2 hPa Calm     94 % 0.00 in /  0 mm
03:04 44.2 °F /  6.8 °C 42.6 °F /  5.9 °C 30.16 in /  1021.2 hPa Calm     94 % 0.00 in /  0 mm
03:09 44.2 °F /  6.8 °C 42.6 °F /  5.9 °C 30.17 in /  1021.6 hPa Calm     94 % 0.00 in /  0 mm
03:14 44.1 °F /  6.7 °C 42.5 °F /  5.8 °C 30.17 in /  1021.6 hPa Calm     94 % 0.00 in /  0 mm
03:19 44.1 °F /  6.7 °C 42.5 °F /  5.8 °C 30.17 in /  1021.6 hPa Calm     94 % 0.00 in /  0 mm
03:24 44.4 °F /  6.9 °C 43.1 °F /  6.2 °C 30.17 in /  1021.6 hPa Calm     95 % 0.00 in /  0 mm
03:29 44.1 °F /  6.7 °C 42.5 °F /  5.8 °C 30.17 in /  1021.6 hPa Calm     94 % 0.00 in /  0 mm
03:34 43.5 °F /  6.4 °C 41.6 °F /  5.3 °C 30.17 in /  1021.6 hPa Calm     93 % 0.00 in /  0 mm
03:39 43.3 °F /  6.3 °C 41.4 °F /  5.2 °C 30.17 in /  1021.6 hPa Calm     93 % 0.00 in /  0 mm
03:44 43.3 °F /  6.3 °C 41.7 °F /  5.4 °C 30.16 in /  1021.2 hPa Calm     94 % 0.00 in /  0 mm
03:49 43.5 °F /  6.4 °C 41.9 °F /  5.5 °C 30.16 in /  1021.2 hPa Calm     94 % 0.00 in /  0 mm
03:54 44.0 °F /  6.7 °C 42.4 °F /  5.8 °C 30.17 in /  1021.6 hPa Calm     94 % 0.00 in /  0 mm
03:59 44.2 °F /  6.8 °C 42.6 °F /  5.9 °C 30.16 in /  1021.2 hPa Calm     94 % 0.00 in /  0 mm
04:04 44.2 °F /  6.8 °C 42.6 °F /  5.9 °C 30.16 in /  1021.2 hPa Calm     94 % 0.00 in /  0 mm
04:09 43.7 °F /  6.5 °C 41.8 °F /  5.4 °C 30.16 in /  1021.2 hPa Calm     93 % 0.00 in /  0 mm
04:14 43.7 °F /  6.5 °C 42.1 °F /  5.6 °C 30.16 in /  1021.2 hPa Calm     94 % 0.00 in /  0 mm
04:19 43.3 °F /  6.3 °C 41.4 °F /  5.2 °C 30.16 in /  1021.2 hPa Calm     93 % 0.00 in /  0 mm
04:24 43.0 °F /  6.1 °C 41.1 °F /  5.1 °C 30.16 in /  1021.2 hPa Calm     93 % 0.00 in /  0 mm
04:29 42.8 °F /  6 °C 40.9 °F /  4.9 °C 30.16 in /  1021.2 hPa Calm     93 % 0.00 in /  0 mm
04:34 42.6 °F /  5.9 °C 40.7 °F /  4.8 °C 30.16 in /  1021.2 hPa Calm     93 % 0.00 in /  0 mm
04:39 42.6 °F /  5.9 °C 41.0 °F /  5 °C 30.16 in /  1021.2 hPa Calm     94 % 0.00 in /  0 mm
04:44 42.6 °F /  5.9 °C 41.0 °F /  5 °C 30.16 in /  1021.2 hPa Calm     94 % 0.00 in /  0 mm
04:49 42.1 °F /  5.6 °C 40.2 °F /  4.6 °C 30.16 in /  1021.2 hPa Calm     93 % 0.00 in /  0 mm
04:54 41.9 °F /  5.5 °C 40.0 °F /  4.4 °C 30.16 in /  1021.2 hPa Calm     93 % 0.00 in /  0 mm
04:59 41.8 °F /  5.4 °C 40.2 °F /  4.6 °C 30.16 in /  1021.2 hPa Calm     94 % 0.00 in /  0 mm
05:04 42.0 °F /  5.6 °C 40.4 °F /  4.7 °C 30.16 in /  1021.2 hPa Calm     94 % 0.00 in /  0 mm
05:09 42.1 °F /  5.6 °C 40.5 °F /  4.7 °C 30.16 in /  1021.2 hPa Calm     94 % 0.00 in /  0 mm
05:14 42.1 °F /  5.6 °C 40.5 °F /  4.7 °C 30.16 in /  1021.2 hPa Calm     94 % 0.00 in /  0 mm
05:19 42.2 °F /  5.7 °C 40.6 °F /  4.8 °C 30.16 in /  1021.2 hPa Calm     94 % 0.00 in /  0 mm
05:24 42.2 °F /  5.7 °C 40.6 °F /  4.8 °C 30.16 in /  1021.2 hPa Calm     94 % 0.00 in /  0 mm
05:29 42.1 °F /  5.6 °C 40.5 °F /  4.7 °C 30.17 in /  1021.6 hPa Calm     94 % 0.00 in /  0 mm
05:34 42.0 °F /  5.6 °C 40.4 °F /  4.7 °C 30.17 in /  1021.6 hPa Calm     94 % 0.00 in /  0 mm
05:39 41.9 °F /  5.5 °C 40.3 °F /  4.6 °C 30.17 in /  1021.6 hPa Calm     94 % 0.00 in /  0 mm
05:44 41.7 °F /  5.4 °C 40.1 °F /  4.5 °C 30.17 in /  1021.6 hPa Calm     94 % 0.00 in /  0 mm
05:49 41.7 °F /  5.4 °C 40.1 °F /  4.5 °C 30.17 in /  1021.6 hPa Calm     94 % 0.00 in /  0 mm
05:54 42.0 °F /  5.6 °C 40.7 °F /  4.8 °C 30.18 in /  1021.9 hPa Calm     95 % 0.00 in /  0 mm
05:59 42.3 °F /  5.7 °C 41.0 °F /  5 °C 30.18 in /  1021.9 hPa SE 1.2 mph /  1.9 km/h   95 % 0.00 in /  0 mm
06:04 42.7 °F /  5.9 °C 41.4 °F /  5.2 °C 30.18 in /  1021.9 hPa Calm     95 % 0.00 in /  0 mm
06:09 42.8 °F /  6 °C 41.5 °F /  5.3 °C 30.18 in /  1021.9 hPa Calm     95 % 0.00 in /  0 mm
06:14 42.8 °F /  6 °C 41.5 °F /  5.3 °C 30.18 in /  1021.9 hPa Calm     95 % 0.00 in /  0 mm
06:19 42.8 °F /  6 °C 41.5 °F /  5.3 °C 30.18 in /  1021.9 hPa Calm     95 % 0.00 in /  0 mm
06:24 42.8 °F /  6 °C 41.5 °F /  5.3 °C 30.18 in /  1021.9 hPa Calm     95 % 0.00 in /  0 mm
06:29 42.9 °F /  6.1 °C 41.6 °F /  5.3 °C 30.18 in /  1021.9 hPa Calm     95 % 0.00 in /  0 mm
06:34 43.0 °F /  6.1 °C 41.7 °F /  5.4 °C 30.18 in /  1021.9 hPa Calm     95 % 0.00 in /  0 mm
06:39 43.2 °F /  6.2 °C 41.9 °F /  5.5 °C 30.19 in /  1022.2 hPa Calm     95 % 0.00 in /  0 mm
06:44 43.2 °F /  6.2 °C 41.9 °F /  5.5 °C 30.19 in /  1022.2 hPa Calm     95 % 0.00 in /  0 mm
06:49 43.3 °F /  6.3 °C 42.0 °F /  5.6 °C 30.19 in /  1022.2 hPa Calm     95 % 0.00 in /  0 mm
06:54 43.2 °F /  6.2 °C 41.9 °F /  5.5 °C 30.19 in /  1022.2 hPa Calm     95 % 0.00 in /  0 mm
06:59 43.2 °F /  6.2 °C 41.9 °F /  5.5 °C 30.19 in /  1022.2 hPa Calm     95 % 0.00 in /  0 mm
07:04 43.1 °F /  6.2 °C 41.8 °F /  5.4 °C 30.20 in /  1022.6 hPa Calm     95 % 0.00 in /  0 mm
07:09 42.7 °F /  5.9 °C 41.4 °F /  5.2 °C 30.19 in /  1022.2 hPa Calm     95 % 0.00 in /  0 mm
07:14 42.2 °F /  5.7 °C 40.6 °F /  4.8 °C 30.19 in /  1022.2 hPa Calm     94 % 0.00 in /  0 mm
07:19 41.8 °F /  5.4 °C 40.2 °F /  4.6 °C 30.20 in /  1022.6 hPa Calm     94 % 0.00 in /  0 mm
07:24 41.6 °F /  5.3 °C 40.0 °F /  4.4 °C 30.20 in /  1022.6 hPa Calm     94 % 0.00 in /  0 mm
07:29 41.7 °F /  5.4 °C 40.1 °F /  4.5 °C 30.20 in /  1022.6 hPa Calm     94 % 0.00 in /  0 mm
07:34 41.9 °F /  5.5 °C 40.6 °F /  4.8 °C 30.20 in /  1022.6 hPa Calm     95 % 0.00 in /  0 mm
07:39 42.2 °F /  5.7 °C 40.9 °F /  4.9 °C 30.20 in /  1022.6 hPa Calm     95 % 0.00 in /  0 mm
07:44 42.4 °F /  5.8 °C 41.1 °F /  5.1 °C 30.20 in /  1022.6 hPa Calm     95 % 0.00 in /  0 mm
07:49 42.8 °F /  6 °C 41.5 °F /  5.3 °C 30.20 in /  1022.6 hPa Calm     95 % 0.00 in /  0 mm
07:54 43.3 °F /  6.3 °C 42.0 °F /  5.6 °C 30.20 in /  1022.6 hPa Calm     95 % 0.00 in /  0 mm
07:59 43.8 °F /  6.6 °C 42.5 °F /  5.8 °C 30.20 in /  1022.6 hPa Calm     95 % 0.00 in /  0 mm
08:04 44.5 °F /  6.9 °C 43.2 °F /  6.2 °C 30.20 in /  1022.6 hPa Calm     95 % 0.00 in /  0 mm
08:09 45.1 °F /  7.3 °C 43.8 °F /  6.6 °C 30.20 in /  1022.6 hPa Calm     95 % 0.00 in /  0 mm
08:14 45.6 °F /  7.6 °C 44.3 °F /  6.8 °C 30.20 in /  1022.6 hPa Calm     95 % 0.00 in /  0 mm
08:19 46.1 °F /  7.8 °C 44.7 °F /  7.1 °C 30.20 in /  1022.6 hPa Calm     95 % 0.00 in /  0 mm
08:24 46.7 °F /  8.2 °C 45.3 °F /  7.4 °C 30.20 in /  1022.6 hPa Calm     95 % 0.00 in /  0 mm
08:29 47.5 °F /  8.6 °C 45.9 °F /  7.7 °C 30.20 in /  1022.6 hPa Calm     94 % 0.00 in /  0 mm
08:34 48.5 °F /  9.2 °C 46.9 °F /  8.3 °C 30.20 in /  1022.6 hPa Calm     94 % 0.00 in /  0 mm
08:39 49.7 °F /  9.8 °C 47.8 °F /  8.8 °C 30.21 in /  1022.9 hPa Calm     93 % 0.00 in /  0 mm
08:44 50.7 °F /  10.4 °C 48.2 °F /  9 °C 30.21 in /  1022.9 hPa Calm     91 % 0.00 in /  0 mm
08:49 51.6 °F /  10.9 °C 48.8 °F /  9.3 °C 30.21 in /  1022.9 hPa Calm     90 % 0.00 in /  0 mm
08:54 52.6 °F /  11.4 °C 49.4 °F /  9.7 °C 30.21 in /  1022.9 hPa Calm     89 % 0.00 in /  0 mm
08:59 53.5 °F /  11.9 °C 50.3 °F /  10.2 °C 30.21 in /  1022.9 hPa Calm     89 % 0.00 in /  0 mm
09:05 54.4 °F /  12.4 °C 50.9 °F /  10.5 °C 30.21 in /  1022.9 hPa Calm     88 % 0.00 in /  0 mm
09:10 55.5 °F /  13.1 °C 52.0 °F /  11.1 °C 30.21 in /  1022.9 hPa Calm     88 % 0.00 in /  0 mm
09:15 56.7 °F /  13.7 °C 52.2 °F /  11.2 °C 30.21 in /  1022.9 hPa Calm     85 % 0.00 in /  0 mm
09:20 57.3 °F /  14.1 °C 52.5 °F /  11.4 °C 30.21 in /  1022.9 hPa Calm     84 % 0.00 in /  0 mm
09:25 57.7 °F /  14.3 °C 52.9 °F /  11.6 °C 30.21 in /  1022.9 hPa Calm     84 % 0.00 in /  0 mm
09:30 58.3 °F /  14.6 °C 52.2 °F /  11.2 °C 30.21 in /  1022.9 hPa Calm     80 % 0.00 in /  0 mm
09:35 58.9 °F /  14.9 °C 52.4 °F /  11.3 °C 30.20 in /  1022.6 hPa Calm     79 % 0.00 in /  0 mm
09:40 59.6 °F /  15.3 °C 53.1 °F /  11.7 °C 30.21 in /  1022.9 hPa Calm     79 % 0.00 in /  0 mm
09:45 60.1 °F /  15.6 °C 52.5 °F /  11.4 °C 30.21 in /  1022.9 hPa Calm     76 % 0.00 in /  0 mm
09:50 60.4 °F /  15.8 °C 52.1 °F /  11.2 °C 30.21 in /  1022.9 hPa Calm     74 % 0.00 in /  0 mm
09:55 60.8 °F /  16 °C 52.8 °F /  11.6 °C 30.21 in /  1022.9 hPa SSE 2.3 mph /  3.7 km/h 2.3 mph /  3.7 km/h 75 % 0.00 in /  0 mm
10:00 61.3 °F /  16.3 °C 52.9 °F /  11.6 °C 30.21 in /  1022.9 hPa ESE 1.2 mph /  1.9 km/h 1.2 mph /  1.9 km/h 74 % 0.00 in /  0 mm
10:05 61.5 °F /  16.4 °C 53.1 °F /  11.7 °C 30.21 in /  1022.9 hPa SE 1.2 mph /  1.9 km/h 1.2 mph /  1.9 km/h 74 % 0.00 in /  0 mm
10:10 61.8 °F /  16.6 °C 53.1 °F /  11.7 °C 30.21 in /  1022.9 hPa Calm     73 % 0.00 in /  0 mm
10:15 62.0 °F /  16.7 °C 52.9 °F /  11.6 °C 30.21 in /  1022.9 hPa SE 1.2 mph /  1.9 km/h 1.2 mph /  1.9 km/h 72 % 0.00 in /  0 mm
10:20 62.4 °F /  16.9 °C 52.9 °F /  11.6 °C 30.20 in /  1022.6 hPa Calm     71 % 0.00 in /  0 mm
10:25 62.7 °F /  17.1 °C 53.2 °F /  11.8 °C 30.20 in /  1022.6 hPa Calm     71 % 0.00 in /  0 mm
10:30 63.0 °F /  17.2 °C 53.8 °F /  12.1 °C 30.20 in /  1022.6 hPa Calm     72 % 0.00 in /  0 mm
10:35 63.6 °F /  17.6 °C 53.6 °F /  12 °C 30.19 in /  1022.2 hPa SSE 2.3 mph /  3.7 km/h 2.3 mph /  3.7 km/h 70 % 0.00 in /  0 mm
10:40 64.1 °F /  17.8 °C 53.3 °F /  11.8 °C 30.19 in /  1022.2 hPa SE 1.2 mph /  1.9 km/h 1.2 mph /  1.9 km/h 68 % 0.00 in /  0 mm
10:45 64.3 °F /  17.9 °C 52.7 °F /  11.5 °C 30.19 in /  1022.2 hPa East 3.5 mph /  5.6 km/h 3.5 mph /  5.6 km/h 66 % 0.00 in /  0 mm
10:50 64.8 °F /  18.2 °C 53.6 °F /  12 °C 30.19 in /  1022.2 hPa Calm     67 % 0.00 in /  0 mm
10:55 65.5 °F /  18.6 °C 53.4 °F /  11.9 °C 30.19 in /  1022.2 hPa South 2.3 mph /  3.7 km/h 2.3 mph /  3.7 km/h 65 % 0.00 in /  0 mm
11:00 66.1 °F /  18.9 °C 53.6 °F /  12 °C 30.19 in /  1022.2 hPa Calm     64 % 0.00 in /  0 mm
11:05 66.3 °F /  19.1 °C 53.8 °F /  12.1 °C 30.19 in /  1022.2 hPa Calm     64 % 0.00 in /  0 mm
11:10 66.2 °F /  19 °C 52.8 °F /  11.6 °C 30.19 in /  1022.2 hPa Calm     62 % 0.00 in /  0 mm
11:15 66.5 °F /  19.2 °C 52.6 °F /  11.4 °C 30.19 in /  1022.2 hPa NW 1.2 mph /  1.9 km/h 1.2 mph /  1.9 km/h 61 % 0.00 in /  0 mm
11:20 66.0 °F /  18.9 °C 52.2 °F /  11.2 °C 30.19 in /  1022.2 hPa NNW 2.3 mph /  3.7 km/h 2.3 mph /  3.7 km/h 61 % 0.00 in /  0 mm
11:25 65.9 °F /  18.8 °C 52.5 °F /  11.4 °C 30.19 in /  1022.2 hPa Calm   0.2 mph /  0.3 km/h 62 % 0.00 in /  0 mm
11:30 66.2 °F /  19 °C 52.3 °F /  11.3 °C 30.19 in /  1022.2 hPa NW 2.3 mph /  3.7 km/h 2.3 mph /  3.7 km/h 61 % 0.00 in /  0 mm
11:35 66.4 °F /  19.1 °C 52.1 °F /  11.2 °C 30.18 in /  1021.9 hPa NW 1.2 mph /  1.9 km/h 1.2 mph /  1.9 km/h 60 % 0.00 in /  0 mm
11:40 66.5 °F /  19.2 °C 52.6 °F /  11.4 °C 30.18 in /  1021.9 hPa WNW 1.2 mph /  1.9 km/h   61 % 0.00 in /  0 mm
11:45 66.9 °F /  19.4 °C 52.1 °F /  11.2 °C 30.18 in /  1021.9 hPa Calm   0.5 mph /  0.8 km/h 59 % 0.00 in /  0 mm
11:50 67.2 °F /  19.6 °C 52.4 °F /  11.3 °C 30.17 in /  1021.6 hPa NW 1.2 mph /  1.9 km/h   59 % 0.00 in /  0 mm
11:55 67.4 °F /  19.7 °C 52.1 °F /  11.2 °C 30.17 in /  1021.6 hPa North 1.2 mph /  1.9 km/h 1.2 mph /  1.9 km/h 58 % 0.00 in /  0 mm
12:00 67.7 °F /  19.8 °C 52.4 °F /  11.3 °C 30.17 in /  1021.6 hPa West 1.0 mph /  1.6 km/h 1.0 mph /  1.6 km/h 58 % 0.00 in /  0 mm
12:05 68.2 °F /  20.1 °C 53.3 °F /  11.8 °C 30.17 in /  1021.6 hPa NNW 1.2 mph /  1.9 km/h 1.2 mph /  1.9 km/h 59 % 0.00 in /  0 mm
12:10 68.4 °F /  20.2 °C 52.1 °F /  11.2 °C 30.17 in /  1021.6 hPa NW 2.3 mph /  3.7 km/h 2.3 mph /  3.7 km/h 56 % 0.00 in /  0 mm
12:15 68.2 °F /  20.1 °C 52.4 °F /  11.3 °C 30.16 in /  1021.2 hPa West 1.2 mph /  1.9 km/h 1.2 mph /  1.9 km/h 57 % 0.00 in /  0 mm
12:20 68.2 °F /  20.1 °C 51.9 °F /  11.1 °C 30.16 in /  1021.2 hPa NW 3.5 mph /  5.6 km/h 3.5 mph /  5.6 km/h 56 % 0.00 in /  0 mm
12:25 68.3 °F /  20.2 °C 51.5 °F /  10.8 °C 30.16 in /  1021.2 hPa WNW 3.5 mph /  5.6 km/h 3.5 mph /  5.6 km/h 55 % 0.00 in /  0 mm
12:30 68.4 °F /  20.2 °C 52.1 °F /  11.2 °C 30.15 in /  1020.9 hPa WNW 1.2 mph /  1.9 km/h 1.2 mph /  1.9 km/h 56 % 0.00 in /  0 mm
12:35 68.3 °F /  20.2 °C 51.5 °F /  10.8 °C 30.15 in /  1020.9 hPa NW 2.3 mph /  3.7 km/h 2.3 mph /  3.7 km/h 55 % 0.00 in /  0 mm
12:40 68.4 °F /  20.2 °C 51.6 °F /  10.9 °C 30.15 in /  1020.9 hPa NW 2.0 mph /  3.2 km/h 2.0 mph /  3.2 km/h 55 % 0.00 in /  0 mm
12:45 68.7 °F /  20.4 °C 51.4 °F /  10.8 °C 30.15 in /  1020.9 hPa NW 1.2 mph /  1.9 km/h 1.2 mph /  1.9 km/h 54 % 0.00 in /  0 mm
12:50 68.9 °F /  20.5 °C 51.1 °F /  10.6 °C 30.14 in /  1020.5 hPa NNW 1.2 mph /  1.9 km/h   53 % 0.00 in /  0 mm
12:55 69.4 °F /  20.8 °C 51.5 °F /  10.8 °C 30.14 in /  1020.5 hPa NW 1.2 mph /  1.9 km/h 1.2 mph /  1.9 km/h 53 % 0.00 in /  0 mm
13:00 69.9 °F /  21.1 °C 51.5 °F /  10.8 °C 30.14 in /  1020.5 hPa NW 2.3 mph /  3.7 km/h 2.3 mph /  3.7 km/h 52 % 0.00 in /  0 mm
13:05 69.8 °F /  21 °C 51.4 °F /  10.8 °C 30.14 in /  1020.5 hPa NW 3.5 mph /  5.6 km/h 3.5 mph /  5.6 km/h 52 % 0.00 in /  0 mm
13:10 69.8 °F /  21 °C 50.9 °F /  10.5 °C 30.13 in /  1020.2 hPa WNW 3.5 mph /  5.6 km/h 3.5 mph /  5.6 km/h 51 % 0.00 in /  0 mm
13:16 69.7 °F /  20.9 °C 51.3 °F /  10.7 °C 30.13 in /  1020.2 hPa NW 1.2 mph /  1.9 km/h   52 % 0.00 in /  0 mm
13:21 69.8 °F /  21 °C 51.9 °F /  11.1 °C 30.13 in /  1020.2 hPa NW 2.3 mph /  3.7 km/h   53 % 0.00 in /  0 mm
13:26 69.8 °F /  21 °C 51.4 °F /  10.8 °C 30.12 in /  1019.9 hPa NW 2.0 mph /  3.2 km/h 2.0 mph /  3.2 km/h 52 % 0.00 in /  0 mm
13:31 69.8 °F /  21 °C 51.4 °F /  10.8 °C 30.13 in /  1020.2 hPa NW 2.3 mph /  3.7 km/h 2.3 mph /  3.7 km/h 52 % 0.00 in /  0 mm
13:36 69.7 °F /  20.9 °C 52.3 °F /  11.3 °C 30.12 in /  1019.9 hPa NW 1.2 mph /  1.9 km/h   54 % 0.00 in /  0 mm
13:41 69.7 °F /  20.9 °C 51.8 °F /  11 °C 30.12 in /  1019.9 hPa NW 2.3 mph /  3.7 km/h 2.3 mph /  3.7 km/h 53 % 0.00 in /  0 mm
13:46 69.5 °F /  20.8 °C 52.1 °F /  11.2 °C 30.12 in /  1019.9 hPa NW 1.2 mph /  1.9 km/h 1.2 mph /  1.9 km/h 54 % 0.00 in /  0 mm
13:51 69.6 °F /  20.9 °C 52.2 °F /  11.2 °C 30.12 in /  1019.9 hPa Calm     54 % 0.00 in /  0 mm
13:56 70.1 °F /  21.2 °C 52.2 °F /  11.2 °C 30.12 in /  1019.9 hPa WNW 1.2 mph /  1.9 km/h   53 % 0.00 in /  0 mm
14:01 70.4 °F /  21.3 °C 51.9 °F /  11.1 °C 30.12 in /  1019.9 hPa NW 3.0 mph /  4.8 km/h 3.0 mph /  4.8 km/h 52 % 0.00 in /  0 mm
14:06 70.5 °F /  21.4 °C 52.0 °F /  11.1 °C 30.11 in /  1019.5 hPa WNW 3.5 mph /  5.6 km/h 3.5 mph /  5.6 km/h 52 % 0.00 in /  0 mm
14:11 70.7 °F /  21.5 °C 53.2 °F /  11.8 °C 30.11 in /  1019.5 hPa WNW 2.3 mph /  3.7 km/h 2.3 mph /  3.7 km/h 54 % 0.00 in /  0 mm
14:16 70.9 °F /  21.6 °C 52.9 °F /  11.6 °C 30.11 in /  1019.5 hPa Calm   0.2 mph /  0.3 km/h 53 % 0.00 in /  0 mm
14:21 71.2 °F /  21.8 °C 53.2 °F /  11.8 °C 30.11 in /  1019.5 hPa WNW 2.3 mph /  3.7 km/h 2.3 mph /  3.7 km/h 53 % 0.00 in /  0 mm
14:26 71.0 °F /  21.7 °C 53.5 °F /  11.9 °C 30.11 in /  1019.5 hPa NW 2.3 mph /  3.7 km/h 2.3 mph /  3.7 km/h 54 % 0.00 in /  0 mm
14:31 70.8 °F /  21.6 °C 53.3 °F /  11.8 °C 30.11 in /  1019.5 hPa WNW 2.0 mph /  3.2 km/h 2.0 mph /  3.2 km/h 54 % 0.00 in /  0 mm
14:36 70.3 °F /  21.3 °C 53.4 °F /  11.9 °C 30.11 in /  1019.5 hPa NW 1.2 mph /  1.9 km/h 1.2 mph /  1.9 km/h 55 % 0.00 in /  0 mm
14:41 70.3 °F /  21.3 °C 52.9 °F /  11.6 °C 30.11 in /  1019.5 hPa NE 2.3 mph /  3.7 km/h 2.3 mph /  3.7 km/h 54 % 0.00 in /  0 mm
14:46 70.3 °F /  21.3 °C 53.4 °F /  11.9 °C 30.11 in /  1019.5 hPa WNW 2.3 mph /  3.7 km/h 2.3 mph /  3.7 km/h 55 % 0.00 in /  0 mm
14:51 70.3 °F /  21.3 °C 52.9 °F /  11.6 °C 30.11 in /  1019.5 hPa NW 2.3 mph /  3.7 km/h 2.3 mph /  3.7 km/h 54 % 0.00 in /  0 mm
14:56 70.0 °F /  21.1 °C 52.6 °F /  11.4 °C 30.11 in /  1019.5 hPa NW 2.3 mph /  3.7 km/h 2.3 mph /  3.7 km/h 54 % 0.00 in /  0 mm
15:01 69.9 °F /  21.1 °C 53.5 °F /  11.9 °C 30.11 in /  1019.5 hPa WNW 2.3 mph /  3.7 km/h 2.3 mph /  3.7 km/h 56 % 0.00 in /  0 mm
15:06 69.9 °F /  21.1 °C 53.5 °F /  11.9 °C 30.11 in /  1019.5 hPa NW 2.3 mph /  3.7 km/h 2.3 mph /  3.7 km/h 56 % 0.00 in /  0 mm
15:11 69.9 °F /  21.1 °C 53.5 °F /  11.9 °C 30.11 in /  1019.5 hPa West 3.5 mph /  5.6 km/h 3.5 mph /  5.6 km/h 56 % 0.00 in /  0 mm
15:16 69.7 °F /  20.9 °C 53.3 °F /  11.8 °C 30.11 in /  1019.5 hPa NW 3.5 mph /  5.6 km/h 3.5 mph /  5.6 km/h 56 % 0.00 in /  0 mm
15:21 69.6 °F /  20.9 °C 53.2 °F /  11.8 °C 30.10 in /  1019.2 hPa NW 2.0 mph /  3.2 km/h 2.0 mph /  3.2 km/h 56 % 0.00 in /  0 mm
15:26 69.6 °F /  20.9 °C 53.7 °F /  12.1 °C 30.10 in /  1019.2 hPa NW 2.0 mph /  3.2 km/h 2.0 mph /  3.2 km/h 57 % 0.00 in /  0 mm
15:31 69.5 °F /  20.8 °C 53.1 °F /  11.7 °C 30.11 in /  1019.5 hPa NW 2.3 mph /  3.7 km/h 2.3 mph /  3.7 km/h 56 % 0.00 in /  0 mm
15:36 69.4 °F /  20.8 °C 53.5 °F /  11.9 °C 30.11 in /  1019.5 hPa NW 2.3 mph /  3.7 km/h 2.3 mph /  3.7 km/h 57 % 0.00 in /  0 mm
15:41 69.3 °F /  20.7 °C 53.4 °F /  11.9 °C 30.11 in /  1019.5 hPa NW 2.3 mph /  3.7 km/h 2.3 mph /  3.7 km/h 57 % 0.00 in /  0 mm
15:46 69.2 °F /  20.7 °C 53.8 °F /  12.1 °C 30.10 in /  1019.2 hPa NNW 2.3 mph /  3.7 km/h 2.3 mph /  3.7 km/h 58 % 0.00 in /  0 mm
15:52 69.0 °F /  20.6 °C 53.6 °F /  12 °C 30.10 in /  1019.2 hPa NNW 3.5 mph /  5.6 km/h 3.5 mph /  5.6 km/h 58 % 0.00 in /  0 mm
15:57 68.7 °F /  20.4 °C 53.8 °F /  12.1 °C 30.10 in /  1019.2 hPa NW 2.3 mph /  3.7 km/h 2.3 mph /  3.7 km/h 59 % 0.00 in /  0 mm
16:02 68.4 °F /  20.2 °C 53.5 °F /  11.9 °C 30.10 in /  1019.2 hPa NW 2.3 mph /  3.7 km/h 2.3 mph /  3.7 km/h 59 % 0.00 in /  0 mm
16:07 68.2 °F /  20.1 °C 53.8 °F /  12.1 °C 30.10 in /  1019.2 hPa Calm     60 % 0.00 in /  0 mm
16:12 68.0 °F /  20 °C 53.6 °F /  12 °C 30.10 in /  1019.2 hPa NW 2.3 mph /  3.7 km/h 2.3 mph /  3.7 km/h 60 % 0.00 in /  0 mm
16:17 67.8 °F /  19.9 °C 53.4 °F /  11.9 °C 30.11 in /  1019.5 hPa WNW 1.2 mph /  1.9 km/h 1.2 mph /  1.9 km/h 60 % 0.00 in /  0 mm
16:22 67.4 °F /  19.7 °C 53.5 °F /  11.9 °C 30.11 in /  1019.5 hPa Calm     61 % 0.00 in /  0 mm
16:27 67.2 °F /  19.6 °C 53.3 °F /  11.8 °C 30.11 in /  1019.5 hPa Calm     61 % 0.00 in /  0 mm
16:32 66.9 °F /  19.4 °C 53.5 °F /  11.9 °C 30.11 in /  1019.5 hPa Calm     62 % 0.00 in /  0 mm
16:37 66.8 °F /  19.3 °C 53.4 °F /  11.9 °C 30.10 in /  1019.2 hPa Calm     62 % 0.00 in /  0 mm
16:42 66.6 °F /  19.2 °C 53.2 °F /  11.8 °C 30.10 in /  1019.2 hPa Calm     62 % 0.00 in /  0 mm
16:47 66.3 °F /  19.1 °C 53.3 °F /  11.8 °C 30.10 in /  1019.2 hPa Calm     63 % 0.00 in /  0 mm
16:52 66.0 °F /  18.9 °C 53.0 °F /  11.7 °C 30.10 in /  1019.2 hPa Calm     63 % 0.00 in /  0 mm
16:57 65.6 °F /  18.7 °C 53.1 °F /  11.7 °C 30.11 in /  1019.5 hPa Calm     64 % 0.00 in /  0 mm
17:02 65.2 °F /  18.4 °C 53.1 °F /  11.7 °C 30.11 in /  1019.5 hPa Calm     65 % 0.00 in /  0 mm
17:07 64.9 °F /  18.3 °C 52.8 °F /  11.6 °C 30.10 in /  1019.2 hPa Calm     65 % 0.00 in /  0 mm
17:12 64.4 °F /  18 °C 52.8 °F /  11.6 °C 30.11 in /  1019.5 hPa Calm     66 % 0.00 in /  0 mm
17:17 63.9 °F /  17.7 °C 52.7 °F /  11.5 °C 30.11 in /  1019.5 hPa Calm     67 % 0.00 in /  0 mm
17:22 63.4 °F /  17.4 °C 53.0 °F /  11.7 °C 30.11 in /  1019.5 hPa Calm     69 % 0.00 in /  0 mm
17:27 62.7 °F /  17.1 °C 52.4 °F /  11.3 °C 30.11 in /  1019.5 hPa Calm     69 % 0.00 in /  0 mm
17:32 62.1 °F /  16.7 °C 53.0 °F /  11.7 °C 30.11 in /  1019.5 hPa Calm     72 % 0.00 in /  0 mm
17:37 61.6 °F /  16.4 °C 53.2 °F /  11.8 °C 30.11 in /  1019.5 hPa Calm     74 % 0.00 in /  0 mm
17:42 61.1 °F /  16.2 °C 53.1 °F /  11.7 °C 30.12 in /  1019.9 hPa Calm     75 % 0.00 in /  0 mm
17:47 60.5 °F /  15.8 °C 52.9 °F /  11.6 °C 30.12 in /  1019.9 hPa Calm     76 % 0.00 in /  0 mm
17:52 59.9 °F /  15.5 °C 52.7 °F /  11.5 °C 30.12 in /  1019.9 hPa Calm     77 % 0.00 in /  0 mm
17:57 59.4 °F /  15.2 °C 52.2 °F /  11.2 °C 30.12 in /  1019.9 hPa Calm     77 % 0.00 in /  0 mm
18:02 58.9 °F /  14.9 °C 51.7 °F /  10.9 °C 30.12 in /  1019.9 hPa Calm     77 % 0.00 in /  0 mm
18:07 58.6 °F /  14.8 °C 51.8 °F /  11 °C 30.12 in /  1019.9 hPa Calm     78 % 0.00 in /  0 mm
18:12 58.2 °F /  14.6 °C 51.4 °F /  10.8 °C 30.12 in /  1019.9 hPa Calm     78 % 0.00 in /  0 mm
18:17 57.9 °F /  14.4 °C 51.4 °F /  10.8 °C 30.12 in /  1019.9 hPa Calm     79 % 0.00 in /  0 mm
18:22 57.7 °F /  14.3 °C 51.6 °F /  10.9 °C 30.12 in /  1019.9 hPa Calm     80 % 0.00 in /  0 mm
18:27 57.6 °F /  14.2 °C 51.5 °F /  10.8 °C 30.13 in /  1020.2 hPa Calm     80 % 0.00 in /  0 mm
18:32 57.4 °F /  14.1 °C 51.6 °F /  10.9 °C 30.13 in /  1020.2 hPa Calm     81 % 0.00 in /  0 mm
18:37 57.2 °F /  14 °C 51.4 °F /  10.8 °C 30.13 in /  1020.2 hPa Calm     81 % 0.00 in /  0 mm
18:42 57.3 °F /  14.1 °C 51.5 °F /  10.8 °C 30.13 in /  1020.2 hPa Calm     81 % 0.00 in /  0 mm
18:47 57.4 °F /  14.1 °C 51.6 °F /  10.9 °C 30.14 in /  1020.5 hPa Calm     81 % 0.00 in /  0 mm
18:52 57.2 °F /  14 °C 51.1 °F /  10.6 °C 30.14 in /  1020.5 hPa Calm     80 % 0.00 in /  0 mm
18:57 56.7 °F /  13.7 °C 50.9 °F /  10.5 °C 30.14 in /  1020.5 hPa Calm     81 % 0.00 in /  0 mm
19:02 56.3 °F /  13.5 °C 50.9 °F /  10.5 °C 30.14 in /  1020.5 hPa Calm     82 % 0.00 in /  0 mm
19:07 56.1 °F /  13.4 °C 51.0 °F /  10.6 °C 30.14 in /  1020.5 hPa Calm     83 % 0.00 in /  0 mm
19:12 55.9 °F /  13.3 °C 50.8 °F /  10.4 °C 30.15 in /  1020.9 hPa Calm     83 % 0.00 in /  0 mm
19:17 55.8 °F /  13.2 °C 50.7 °F /  10.4 °C 30.15 in /  1020.9 hPa Calm     83 % 0.00 in /  0 mm
19:22 55.6 °F /  13.1 °C 50.5 °F /  10.3 °C 30.14 in /  1020.5 hPa Calm     83 % 0.00 in /  0 mm
19:27 55.5 °F /  13.1 °C 50.4 °F /  10.2 °C 30.14 in /  1020.5 hPa Calm     83 % 0.00 in /  0 mm
19:32 55.3 °F /  12.9 °C 50.2 °F /  10.1 °C 30.14 in /  1020.5 hPa Calm     83 % 0.00 in /  0 mm
19:37 55.2 °F /  12.9 °C 50.4 °F /  10.2 °C 30.14 in /  1020.5 hPa Calm     84 % 0.00 in /  0 mm
19:42 55.1 °F /  12.8 °C 50.0 °F /  10 °C 30.15 in /  1020.9 hPa NW 1.2 mph /  1.9 km/h   83 % 0.00 in /  0 mm
19:47 55.1 °F /  12.8 °C 50.0 °F /  10 °C 30.15 in /  1020.9 hPa Calm     83 % 0.00 in /  0 mm
19:52 54.8 °F /  12.7 °C 49.7 °F /  9.8 °C 30.15 in /  1020.9 hPa Calm     83 % 0.00 in /  0 mm
19:57 54.3 °F /  12.4 °C 49.2 °F /  9.6 °C 30.15 in /  1020.9 hPa Calm     83 % 0.00 in /  0 mm
20:02 54.2 °F /  12.3 °C 49.5 °F /  9.7 °C 30.15 in /  1020.9 hPa Calm     84 % 0.00 in /  0 mm
20:07 54.0 °F /  12.2 °C 49.3 °F /  9.6 °C 30.15 in /  1020.9 hPa Calm     84 % 0.00 in /  0 mm
20:12 53.7 °F /  12.1 °C 49.3 °F /  9.6 °C 30.15 in /  1020.9 hPa Calm     85 % 0.00 in /  0 mm
20:17 53.9 °F /  12.2 °C 49.8 °F /  9.9 °C 30.15 in /  1020.9 hPa Calm   0.1 mph /  0.2 km/h 86 % 0.00 in /  0 mm
20:22 54.3 °F /  12.4 °C 49.6 °F /  9.8 °C 30.16 in /  1021.2 hPa Calm     84 % 0.00 in /  0 mm
20:27 54.1 °F /  12.3 °C 49.7 °F /  9.8 °C 30.16 in /  1021.2 hPa Calm     85 % 0.00 in /  0 mm
20:32 54.1 °F /  12.3 °C 49.7 °F /  9.8 °C 30.16 in /  1021.2 hPa Calm     85 % 0.00 in /  0 mm
20:37 53.7 °F /  12.1 °C 48.7 °F /  9.3 °C 30.16 in /  1021.2 hPa Calm     83 % 0.00 in /  0 mm
20:42 53.2 °F /  11.8 °C 48.8 °F /  9.3 °C 30.16 in /  1021.2 hPa Calm     85 % 0.00 in /  0 mm
20:47 53.0 °F /  11.7 °C 48.9 °F /  9.4 °C 30.16 in /  1021.2 hPa Calm     86 % 0.00 in /  0 mm
20:52 52.8 °F /  11.6 °C 48.7 °F /  9.3 °C 30.17 in /  1021.6 hPa Calm     86 % 0.00 in /  0 mm
20:57 52.5 °F /  11.4 °C 48.4 °F /  9.1 °C 30.17 in /  1021.6 hPa Calm     86 % 0.00 in /  0 mm
21:02 52.2 °F /  11.2 °C 48.4 °F /  9.1 °C 30.17 in /  1021.6 hPa Calm     87 % 0.00 in /  0 mm
21:08 52.0 °F /  11.1 °C 48.3 °F /  9.1 °C 30.17 in /  1021.6 hPa Calm     87 % 0.00 in /  0 mm
21:13 51.8 °F /  11 °C 48.4 °F /  9.1 °C 30.17 in /  1021.6 hPa Calm     88 % 0.00 in /  0 mm
21:18 51.9 °F /  11.1 °C 48.5 °F /  9.2 °C 30.17 in /  1021.6 hPa Calm     88 % 0.00 in /  0 mm
21:23 51.7 °F /  10.9 °C 48.3 °F /  9.1 °C 30.18 in /  1021.9 hPa Calm     88 % 0.00 in /  0 mm
21:28 51.5 °F /  10.8 °C 48.4 °F /  9.1 °C 30.17 in /  1021.6 hPa Calm     89 % 0.00 in /  0 mm
21:33 51.5 °F /  10.8 °C 48.4 °F /  9.1 °C 30.17 in /  1021.6 hPa Calm     89 % 0.00 in /  0 mm
21:38 51.9 °F /  11.1 °C 48.8 °F /  9.3 °C 30.17 in /  1021.6 hPa Calm     89 % 0.00 in /  0 mm
21:43 51.9 °F /  11.1 °C 48.5 °F /  9.2 °C 30.17 in /  1021.6 hPa Calm     88 % 0.00 in /  0 mm
21:48 51.8 °F /  11 °C 48.4 °F /  9.1 °C 30.17 in /  1021.6 hPa Calm     88 % 0.00 in /  0 mm
21:53 51.5 °F /  10.8 °C 47.8 °F /  8.8 °C 30.17 in /  1021.6 hPa Calm     87 % 0.00 in /  0 mm
21:58 51.1 °F /  10.6 °C 47.7 °F /  8.7 °C 30.18 in /  1021.9 hPa Calm     88 % 0.00 in /  0 mm
22:03 50.8 °F /  10.4 °C 47.4 °F /  8.6 °C 30.18 in /  1021.9 hPa Calm     88 % 0.00 in /  0 mm
22:08 50.6 °F /  10.3 °C 47.5 °F /  8.6 °C 30.17 in /  1021.6 hPa Calm     89 % 0.00 in /  0 mm
22:13 50.6 °F /  10.3 °C 47.5 °F /  8.6 °C 30.17 in /  1021.6 hPa Calm     89 % 0.00 in /  0 mm
22:18 50.4 °F /  10.2 °C 47.3 °F /  8.5 °C 30.17 in /  1021.6 hPa Calm     89 % 0.00 in /  0 mm
22:23 50.2 °F /  10.1 °C 47.1 °F /  8.4 °C 30.17 in /  1021.6 hPa Calm     89 % 0.00 in /  0 mm
22:28 50.1 °F /  10.1 °C 47.0 °F /  8.3 °C 30.17 in /  1021.6 hPa Calm     89 % 0.00 in /  0 mm
22:33 50.0 °F /  10 °C 46.9 °F /  8.3 °C 30.17 in /  1021.6 hPa Calm     89 % 0.00 in /  0 mm
22:38 49.8 °F /  9.9 °C 46.7 °F /  8.2 °C 30.17 in /  1021.6 hPa Calm     89 % 0.00 in /  0 mm
22:43 49.5 °F /  9.7 °C 46.4 °F /  8 °C 30.17 in /  1021.6 hPa Calm     89 % 0.00 in /  0 mm
22:48 49.1 °F /  9.5 °C 46.0 °F /  7.8 °C 30.17 in /  1021.6 hPa Calm     89 % 0.00 in /  0 mm
22:53 48.7 °F /  9.3 °C 45.3 °F /  7.4 °C 30.17 in /  1021.6 hPa Calm     88 % 0.00 in /  0 mm
22:58 48.3 °F /  9.1 °C 44.9 °F /  7.2 °C 30.17 in /  1021.6 hPa Calm     88 % 0.00 in /  0 mm
23:03 48.0 °F /  8.9 °C 44.9 °F /  7.2 °C 30.16 in /  1021.2 hPa Calm     89 % 0.00 in /  0 mm
23:08 47.7 °F /  8.7 °C 44.6 °F /  7 °C 30.17 in /  1021.6 hPa Calm     89 % 0.00 in /  0 mm
23:13 47.7 °F /  8.7 °C 45.2 °F /  7.3 °C 30.16 in /  1021.2 hPa Calm     91 % 0.00 in /  0 mm
23:18 47.8 °F /  8.8 °C 45.6 °F /  7.6 °C 30.17 in /  1021.6 hPa Calm     92 % 0.00 in /  0 mm
23:23 48.0 °F /  8.9 °C 45.8 °F /  7.7 °C 30.16 in /  1021.2 hPa Calm     92 % 0.00 in /  0 mm
23:28 47.7 °F /  8.7 °C 45.2 °F /  7.3 °C 30.16 in /  1021.2 hPa Calm     91 % 0.00 in /  0 mm
23:33 47.4 °F /  8.6 °C 44.6 °F /  7 °C 30.16 in /  1021.2 hPa Calm     90 % 0.00 in /  0 mm
23:38 47.1 °F /  8.4 °C 44.6 °F /  7 °C 30.17 in /  1021.6 hPa Calm     91 % 0.00 in /  0 mm
23:43 46.9 °F /  8.3 °C 44.4 °F /  6.9 °C 30.16 in /  1021.2 hPa Calm     91 % 0.00 in /  0 mm
23:46 46.9 °F /  8.3 °C 44.7 °F /  7.1 °C 30.17 in /  1021.6 hPa Calm     92 % 0.00 in /  0 mm
23:51 47.3 °F /  8.5 °C 45.1 °F /  7.3 °C 30.17 in /  1021.6 hPa Calm     92 % 0.00 in /  0 mm
23:56 47.7 °F /  8.7 °C 45.5 °F /  7.5 °C 30.17 in /  1021.6 hPa Calm     92 % 0.00 in /  0 mm
Park Place, Exeter, Tulare County, California, USA
Compliments of Weather Underground - 2.75 mb